Sammy — 3ETS7 — position and weather

sailwx.info

Track history (hours):
 
Tides and Currents Weather Stations Pressure Air Temp Water Temp Dewpoint Dewpoint Depression Visibility Wind Speed Wind Dir Waves Ship Positions

Sammy

Last reported at 2017-Dec-12 08:26 UTC. Time now 2017-Dec-17 19:50 UTC.
Position N 41°16' E 140°13'.

Length 228 m; draft 13.2 m.

Type: Cargo ship. MMSI: 373842000.

Date/timePositionNaut miles runAvg speedWind from/ knotsBaromVisibWave heightAir tempDewpointWater temp
2017-Dec-12 08:26N 41°16' E 140°13'3 3.6
2017-Dec-12 07:36N 41°18' E 140°16'0 3.7
2017-Dec-12 07:30N 41°18' E 140°16'2 3.6
2017-Dec-12 06:58N 41°20' E 140°18'2 3.9
2017-Dec-12 06:29N 41°21' E 140°20'3 5.4
2017-Dec-12 05:59N 41°23' E 140°22'3 6.2
2017-Dec-12 05:27N 41°25' E 140°26'3 6.5
2017-Dec-12 05:00N 41°26' E 140°29'4 7.2
2017-Dec-12 04:30N 41°28' E 140°33'4 7.6
2017-Dec-12 04:00N 41°31' E 140°37'4 8.9
2017-Dec-12 03:30N 41°33' E 140°42'5 9.1
2017-Dec-12 03:00N 41°36' E 140°47'4 7.7
2017-Dec-12 02:30N 41°38' E 140°51'3 7.0
2017-Dec-12 02:00N 41°38' E 140°56'3 6.9
2017-Dec-12 01:30N 41°38' E 141°01'3 6.0
2017-Dec-12 01:00N 41°38' E 141°05'4 7.1
2017-Dec-12 00:30N 41°38' E 141°09'4 8.2
2017-Dec-11 23:59N 41°39' E 141°15'4 8.3
2017-Dec-11 23:28N 41°39' E 141°21'4 8.7
2017-Dec-11 23:00N 41°40' E 141°26'4 8.2
2017-Dec-11 22:27N 41°40' E 141°32'4 7.8
2017-Dec-11 21:56N 41°40' E 141°38'  
Track history (hours):
 
Tides and Currents Weather Stations Pressure Air Temp Water Temp Dewpoint Dewpoint Depression Visibility Wind Speed Wind Dir Waves Ship Positions

Sammy

Last reported at 2017-Dec-12 08:26 UTC. Time now 2017-Dec-17 19:50 UTC.
Position N 41°16' E 140°13'.

Length 228 m; draft 13.2 m.

Type: Cargo ship. MMSI: 373842000.

Date/timePositionNaut miles runAvg speedWind from/ knotsBaromVisibWave heightAir tempDewpointWater temp
2017-Dec-12 08:26N 41°16' E 140°13'3 3.6
2017-Dec-12 07:36N 41°18' E 140°16'0 3.7
2017-Dec-12 07:30N 41°18' E 140°16'2 3.6
2017-Dec-12 06:58N 41°20' E 140°18'2 3.9
2017-Dec-12 06:29N 41°21' E 140°20'3 5.4
2017-Dec-12 05:59N 41°23' E 140°22'3 6.2
2017-Dec-12 05:27N 41°25' E 140°26'3 6.5
2017-Dec-12 05:00N 41°26' E 140°29'4 7.2
2017-Dec-12 04:30N 41°28' E 140°33'4 7.6
2017-Dec-12 04:00N 41°31' E 140°37'4 8.9
2017-Dec-12 03:30N 41°33' E 140°42'5 9.1
2017-Dec-12 03:00N 41°36' E 140°47'4 7.7
2017-Dec-12 02:30N 41°38' E 140°51'3 7.0
2017-Dec-12 02:00N 41°38' E 140°56'3 6.9
2017-Dec-12 01:30N 41°38' E 141°01'3 6.0
2017-Dec-12 01:00N 41°38' E 141°05'4 7.1
2017-Dec-12 00:30N 41°38' E 141°09'4 8.2
2017-Dec-11 23:59N 41°39' E 141°15'4 8.3
2017-Dec-11 23:28N 41°39' E 141°21'4 8.7
2017-Dec-11 23:00N 41°40' E 141°26'4 8.2
2017-Dec-11 22:27N 41°40' E 141°32'4 7.8
2017-Dec-11 21:56N 41°40' E 141°38'  

Dump ship's entire track history